sensor_id;sensor_type;location;lat;lon;timestamp;temperature;humidity
30381;DHT22;17169;50.966;11.038;2023-06-04T00:01:20;12.10;76.10
30381;DHT22;17169;50.966;11.038;2023-06-04T00:04:24;12.10;76.30
30381;DHT22;17169;50.966;11.038;2023-06-04T00:07:28;11.90;76.70
30381;DHT22;17169;50.966;11.038;2023-06-04T00:10:30;11.80;77.40
30381;DHT22;17169;50.966;11.038;2023-06-04T00:13:34;11.80;77.60
30381;DHT22;17169;50.966;11.038;2023-06-04T00:16:37;11.70;78.30
30381;DHT22;17169;50.966;11.038;2023-06-04T00:19:39;11.60;77.90
30381;DHT22;17169;50.966;11.038;2023-06-04T00:22:43;11.60;78.10
30381;DHT22;17169;50.966;11.038;2023-06-04T00:25:46;11.60;78.10
30381;DHT22;17169;50.966;11.038;2023-06-04T00:28:48;11.50;78.50
30381;DHT22;17169;50.966;11.038;2023-06-04T00:31:50;11.40;79.00
30381;DHT22;17169;50.966;11.038;2023-06-04T00:34:54;11.30;79.30
30381;DHT22;17169;50.966;11.038;2023-06-04T00:38:00;11.20;79.90
30381;DHT22;17169;50.966;11.038;2023-06-04T00:41:02;11.00;80.30
30381;DHT22;17169;50.966;11.038;2023-06-04T00:44:05;11.00;80.80
30381;DHT22;17169;50.966;11.038;2023-06-04T00:47:07;10.80;81.10
30381;DHT22;17169;50.966;11.038;2023-06-04T00:50:10;10.60;81.60
30381;DHT22;17169;50.966;11.038;2023-06-04T00:53:14;10.60;82.10
30381;DHT22;17169;50.966;11.038;2023-06-04T00:56:17;10.70;82.30
30381;DHT22;17169;50.966;11.038;2023-06-04T00:59:20;10.70;82.20
30381;DHT22;17169;50.966;11.038;2023-06-04T01:02:23;10.60;82.20
30381;DHT22;17169;50.966;11.038;2023-06-04T01:05:32;10.60;82.60
30381;DHT22;17169;50.966;11.038;2023-06-04T01:08:39;10.50;83.20
30381;DHT22;17169;50.966;11.038;2023-06-04T01:11:43;10.40;83.40
30381;DHT22;17169;50.966;11.038;2023-06-04T01:14:46;10.40;83.50
30381;DHT22;17169;50.966;11.038;2023-06-04T01:17:51;10.50;83.80
30381;DHT22;17169;50.966;11.038;2023-06-04T01:20:59;10.40;84.10
30381;DHT22;17169;50.966;11.038;2023-06-04T01:24:05;10.40;84.10
30381;DHT22;17169;50.966;11.038;2023-06-04T01:27:08;10.40;84.50
30381;DHT22;17169;50.966;11.038;2023-06-04T01:30:11;10.40;84.70
30381;DHT22;17169;50.966;11.038;2023-06-04T01:33:16;10.20;85.10
30381;DHT22;17169;50.966;11.038;2023-06-04T01:36:19;10.10;85.90
30381;DHT22;17169;50.966;11.038;2023-06-04T01:39:23;9.90;86.90
30381;DHT22;17169;50.966;11.038;2023-06-04T01:42:25;9.80;87.90
30381;DHT22;17169;50.966;11.038;2023-06-04T01:45:28;9.80;88.10
30381;DHT22;17169;50.966;11.038;2023-06-04T01:48:30;9.70;88.20
30381;DHT22;17169;50.966;11.038;2023-06-04T01:51:34;9.80;88.70
30381;DHT22;17169;50.966;11.038;2023-06-04T01:54:39;9.80;88.60
30381;DHT22;17169;50.966;11.038;2023-06-04T01:57:42;9.80;88.40
30381;DHT22;17169;50.966;11.038;2023-06-04T02:00:45;9.80;88.70
30381;DHT22;17169;50.966;11.038;2023-06-04T02:03:47;9.80;88.90
30381;DHT22;17169;50.966;11.038;2023-06-04T02:06:50;9.80;89.10
30381;DHT22;17169;50.966;11.038;2023-06-04T02:09:54;9.70;89.70
30381;DHT22;17169;50.966;11.038;2023-06-04T02:12:58;9.50;90.20
30381;DHT22;17169;50.966;11.038;2023-06-04T02:16:00;9.40;90.60
30381;DHT22;17169;50.966;11.038;2023-06-04T02:19:03;9.30;90.90
30381;DHT22;17169;50.966;11.038;2023-06-04T02:22:06;9.40;91.20
30381;DHT22;17169;50.966;11.038;2023-06-04T02:25:10;9.40;91.30
30381;DHT22;17169;50.966;11.038;2023-06-04T02:28:13;9.40;91.40
30381;DHT22;17169;50.966;11.038;2023-06-04T02:31:15;9.30;91.60
30381;DHT22;17169;50.966;11.038;2023-06-04T02:34:18;9.00;91.90
30381;DHT22;17169;50.966;11.038;2023-06-04T02:37:20;9.00;92.30
30381;DHT22;17169;50.966;11.038;2023-06-04T02:40:24;8.90;92.50
30381;DHT22;17169;50.966;11.038;2023-06-04T02:43:27;8.90;92.80
30381;DHT22;17169;50.966;11.038;2023-06-04T02:46:29;8.80;93.00
30381;DHT22;17169;50.966;11.038;2023-06-04T02:49:31;8.80;93.20
30381;DHT22;17169;50.966;11.038;2023-06-04T02:52:34;8.70;93.40
30381;DHT22;17169;50.966;11.038;2023-06-04T02:55:39;8.70;93.50
30381;DHT22;17169;50.966;11.038;2023-06-04T02:58:49;8.60;93.70
30381;DHT22;17169;50.966;11.038;2023-06-04T03:01:52;8.60;93.80
30381;DHT22;17169;50.966;11.038;2023-06-04T03:04:55;8.50;94.00
30381;DHT22;17169;50.966;11.038;2023-06-04T03:07:57;8.40;94.30
30381;DHT22;17169;50.966;11.038;2023-06-04T03:11:01;8.30;94.60
30381;DHT22;17169;50.966;11.038;2023-06-04T03:14:04;8.20;95.00
30381;DHT22;17169;50.966;11.038;2023-06-04T03:17:06;8.00;95.40
30381;DHT22;17169;50.966;11.038;2023-06-04T03:20:11;7.90;95.50
30381;DHT22;17169;50.966;11.038;2023-06-04T03:23:14;7.90;95.60
30381;DHT22;17169;50.966;11.038;2023-06-04T03:26:18;7.90;95.80
30381;DHT22;17169;50.966;11.038;2023-06-04T03:29:21;7.90;95.90
30381;DHT22;17169;50.966;11.038;2023-06-04T03:32:23;7.90;96.10
30381;DHT22;17169;50.966;11.038;2023-06-04T03:35:25;7.90;96.10
30381;DHT22;17169;50.966;11.038;2023-06-04T03:38:28;8.00;96.20
30381;DHT22;17169;50.966;11.038;2023-06-04T03:41:32;7.90;96.20
30381;DHT22;17169;50.966;11.038;2023-06-04T03:44:34;8.00;96.30
30381;DHT22;17169;50.966;11.038;2023-06-04T03:47:38;8.00;96.20
30381;DHT22;17169;50.966;11.038;2023-06-04T03:50:41;8.00;96.10
30381;DHT22;17169;50.966;11.038;2023-06-04T03:53:43;8.00;95.90
30381;DHT22;17169;50.966;11.038;2023-06-04T03:56:47;8.00;95.90
30381;DHT22;17169;50.966;11.038;2023-06-04T03:59:49;8.10;95.90
30381;DHT22;17169;50.966;11.038;2023-06-04T04:02:52;8.10;95.90
30381;DHT22;17169;50.966;11.038;2023-06-04T04:05:54;8.10;95.80
30381;DHT22;17169;50.966;11.038;2023-06-04T04:08:57;8.20;95.90
30381;DHT22;17169;50.966;11.038;2023-06-04T04:12:01;8.20;95.70
30381;DHT22;17169;50.966;11.038;2023-06-04T04:15:04;8.30;95.60
30381;DHT22;17169;50.966;11.038;2023-06-04T04:18:07;8.40;95.50
30381;DHT22;17169;50.966;11.038;2023-06-04T04:21:11;8.40;95.40
30381;DHT22;17169;50.966;11.038;2023-06-04T04:24:22;8.50;95.50
30381;DHT22;17169;50.966;11.038;2023-06-04T04:27:26;8.50;95.50
30381;DHT22;17169;50.966;11.038;2023-06-04T04:30:31;8.60;95.30
30381;DHT22;17169;50.966;11.038;2023-06-04T04:33:35;8.70;95.30
30381;DHT22;17169;50.966;11.038;2023-06-04T04:36:40;8.80;95.20
30381;DHT22;17169;50.966;11.038;2023-06-04T04:39:43;9.00;95.20
30381;DHT22;17169;50.966;11.038;2023-06-04T04:42:47;9.10;95.20
30381;DHT22;17169;50.966;11.038;2023-06-04T04:45:49;9.30;95.10
30381;DHT22;17169;50.966;11.038;2023-06-04T04:48:51;9.40;94.90
30381;DHT22;17169;50.966;11.038;2023-06-04T04:51:54;9.50;94.70
30381;DHT22;17169;50.966;11.038;2023-06-04T04:54:56;9.60;94.80
30381;DHT22;17169;50.966;11.038;2023-06-04T04:58:00;9.70;94.60
30381;DHT22;17169;50.966;11.038;2023-06-04T05:01:02;9.80;94.20
30381;DHT22;17169;50.966;11.038;2023-06-04T05:04:05;9.80;93.90
30381;DHT22;17169;50.966;11.038;2023-06-04T05:07:07;9.90;93.90
30381;DHT22;17169;50.966;11.038;2023-06-04T05:10:09;10.00;94.00
30381;DHT22;17169;50.966;11.038;2023-06-04T05:13:13;10.20;93.90
30381;DHT22;17169;50.966;11.038;2023-06-04T05:16:16;10.20;93.30
30381;DHT22;17169;50.966;11.038;2023-06-04T05:19:21;10.30;93.00
30381;DHT22;17169;50.966;11.038;2023-06-04T05:22:25;10.40;92.80
30381;DHT22;17169;50.966;11.038;2023-06-04T05:25:29;10.50;92.40
30381;DHT22;17169;50.966;11.038;2023-06-04T05:28:33;10.70;92.50
30381;DHT22;17169;50.966;11.038;2023-06-04T05:31:36;10.80;91.90
30381;DHT22;17169;50.966;11.038;2023-06-04T05:34:40;10.90;91.60
30381;DHT22;17169;50.966;11.038;2023-06-04T05:37:43;10.80;91.50
30381;DHT22;17169;50.966;11.038;2023-06-04T05:40:46;10.90;91.60
30381;DHT22;17169;50.966;11.038;2023-06-04T05:43:50;11.00;91.70
30381;DHT22;17169;50.966;11.038;2023-06-04T05:46:53;11.10;91.50
30381;DHT22;17169;50.966;11.038;2023-06-04T05:49:55;11.20;91.40
30381;DHT22;17169;50.966;11.038;2023-06-04T05:52:58;11.30;91.50
30381;DHT22;17169;50.966;11.038;2023-06-04T05:56:00;11.40;91.30
30381;DHT22;17169;50.966;11.038;2023-06-04T05:59:04;11.60;91.30
30381;DHT22;17169;50.966;11.038;2023-06-04T06:02:07;11.80;91.10
30381;DHT22;17169;50.966;11.038;2023-06-04T06:05:09;11.90;90.50
30381;DHT22;17169;50.966;11.038;2023-06-04T06:08:13;12.00;90.50
30381;DHT22;17169;50.966;11.038;2023-06-04T06:11:15;12.20;90.30
30381;DHT22;17169;50.966;11.038;2023-06-04T06:14:19;12.30;89.90
30381;DHT22;17169;50.966;11.038;2023-06-04T06:17:21;12.50;89.80
30381;DHT22;17169;50.966;11.038;2023-06-04T06:20:25;12.70;88.70
30381;DHT22;17169;50.966;11.038;2023-06-04T06:23:27;12.90;88.20
30381;DHT22;17169;50.966;11.038;2023-06-04T06:26:29;13.10;87.80
30381;DHT22;17169;50.966;11.038;2023-06-04T06:29:34;13.30;86.10
30381;DHT22;17169;50.966;11.038;2023-06-04T06:32:36;13.40;85.00
30381;DHT22;17169;50.966;11.038;2023-06-04T06:35:39;13.60;84.80
30381;DHT22;17169;50.966;11.038;2023-06-04T06:38:41;13.80;84.30
30381;DHT22;17169;50.966;11.038;2023-06-04T06:41:44;14.00;82.90
30381;DHT22;17169;50.966;11.038;2023-06-04T06:44:48;14.20;82.20
30381;DHT22;17169;50.966;11.038;2023-06-04T06:47:51;14.40;80.00
30381;DHT22;17169;50.966;11.038;2023-06-04T06:50:54;14.60;79.30
30381;DHT22;17169;50.966;11.038;2023-06-04T06:53:56;14.80;79.70
30381;DHT22;17169;50.966;11.038;2023-06-04T06:56:58;15.00;78.90
30381;DHT22;17169;50.966;11.038;2023-06-04T07:00:04;15.20;78.00
30381;DHT22;17169;50.966;11.038;2023-06-04T07:03:06;15.40;77.80
30381;DHT22;17169;50.966;11.038;2023-06-04T07:06:09;15.50;77.00
30381;DHT22;17169;50.966;11.038;2023-06-04T07:09:13;15.70;76.80
30381;DHT22;17169;50.966;11.038;2023-06-04T07:12:16;15.90;76.00
30381;DHT22;17169;50.966;11.038;2023-06-04T07:15:20;16.10;75.50
30381;DHT22;17169;50.966;11.038;2023-06-04T07:18:22;16.30;74.50
30381;DHT22;17169;50.966;11.038;2023-06-04T07:21:24;16.40;73.90
30381;DHT22;17169;50.966;11.038;2023-06-04T07:24:27;16.60;73.20
30381;DHT22;17169;50.966;11.038;2023-06-04T07:27:29;16.70;72.20
30381;DHT22;17169;50.966;11.038;2023-06-04T07:30:33;16.90;71.80
30381;DHT22;17169;50.966;11.038;2023-06-04T07:33:35;17.00;70.10
30381;DHT22;17169;50.966;11.038;2023-06-04T07:36:43;17.10;70.70
30381;DHT22;17169;50.966;11.038;2023-06-04T07:39:46;17.30;70.50
30381;DHT22;17169;50.966;11.038;2023-06-04T07:42:48;17.40;70.60
30381;DHT22;17169;50.966;11.038;2023-06-04T07:45:52;17.60;70.50
30381;DHT22;17169;50.966;11.038;2023-06-04T07:48:54;17.70;69.80
30381;DHT22;17169;50.966;11.038;2023-06-04T07:51:59;17.80;69.60
30381;DHT22;17169;50.966;11.038;2023-06-04T07:55:03;17.90;68.50
30381;DHT22;17169;50.966;11.038;2023-06-04T07:58:06;18.00;68.90
30381;DHT22;17169;50.966;11.038;2023-06-04T08:01:09;18.10;69.30
30381;DHT22;17169;50.966;11.038;2023-06-04T08:04:12;18.20;68.90
30381;DHT22;17169;50.966;11.038;2023-06-04T08:07:14;18.30;68.60
30381;DHT22;17169;50.966;11.038;2023-06-04T08:10:16;18.50;68.30
30381;DHT22;17169;50.966;11.038;2023-06-04T08:13:19;18.60;67.70
30381;DHT22;17169;50.966;11.038;2023-06-04T08:16:23;18.70;67.40
30381;DHT22;17169;50.966;11.038;2023-06-04T08:19:25;18.70;67.00
30381;DHT22;17169;50.966;11.038;2023-06-04T08:22:27;18.80;67.10
30381;DHT22;17169;50.966;11.038;2023-06-04T08:25:30;18.90;67.70
30381;DHT22;17169;50.966;11.038;2023-06-04T08:28:32;19.00;67.70
30381;DHT22;17169;50.966;11.038;2023-06-04T08:31:36;19.20;67.10
30381;DHT22;17169;50.966;11.038;2023-06-04T08:34:40;19.20;66.70
30381;DHT22;17169;50.966;11.038;2023-06-04T08:37:42;19.30;66.80
30381;DHT22;17169;50.966;11.038;2023-06-04T08:40:45;19.50;65.10
30381;DHT22;17169;50.966;11.038;2023-06-04T08:43:48;19.60;65.00
30381;DHT22;17169;50.966;11.038;2023-06-04T08:46:52;19.60;64.30
30381;DHT22;17169;50.966;11.038;2023-06-04T08:49:58;19.70;63.30
30381;DHT22;17169;50.966;11.038;2023-06-04T08:53:01;19.80;63.70
30381;DHT22;17169;50.966;11.038;2023-06-04T08:56:04;19.90;62.50
30381;DHT22;17169;50.966;11.038;2023-06-04T08:59:07;19.90;62.10
30381;DHT22;17169;50.966;11.038;2023-06-04T09:02:11;19.90;61.90
30381;DHT22;17169;50.966;11.038;2023-06-04T09:05:20;20.00;61.30
30381;DHT22;17169;50.966;11.038;2023-06-04T09:08:24;20.10;59.90
30381;DHT22;17169;50.966;11.038;2023-06-04T09:11:30;20.10;58.70
30381;DHT22;17169;50.966;11.038;2023-06-04T09:14:34;20.20;58.60
30381;DHT22;17169;50.966;11.038;2023-06-04T09:17:38;20.30;57.50
30381;DHT22;17169;50.966;11.038;2023-06-04T09:20:40;20.40;57.20
30381;DHT22;17169;50.966;11.038;2023-06-04T09:23:46;20.40;56.70
30381;DHT22;17169;50.966;11.038;2023-06-04T09:26:49;20.50;55.80
30381;DHT22;17169;50.966;11.038;2023-06-04T09:29:54;20.50;57.10
30381;DHT22;17169;50.966;11.038;2023-06-04T09:33:07;20.60;56.00
30381;DHT22;17169;50.966;11.038;2023-06-04T09:36:09;20.70;55.80
30381;DHT22;17169;50.966;11.038;2023-06-04T09:39:16;20.80;55.70
30381;DHT22;17169;50.966;11.038;2023-06-04T09:42:18;20.80;55.10
30381;DHT22;17169;50.966;11.038;2023-06-04T09:45:27;20.80;55.20
30381;DHT22;17169;50.966;11.038;2023-06-04T09:48:32;20.80;55.50
30381;DHT22;17169;50.966;11.038;2023-06-04T09:51:34;21.00;56.00
30381;DHT22;17169;50.966;11.038;2023-06-04T09:54:38;21.10;55.90
30381;DHT22;17169;50.966;11.038;2023-06-04T09:57:41;21.10;55.50
30381;DHT22;17169;50.966;11.038;2023-06-04T10:00:46;21.20;53.90
30381;DHT22;17169;50.966;11.038;2023-06-04T10:03:51;21.20;54.10
30381;DHT22;17169;50.966;11.038;2023-06-04T10:06:53;21.20;55.30
30381;DHT22;17169;50.966;11.038;2023-06-04T10:09:56;21.40;54.80
30381;DHT22;17169;50.966;11.038;2023-06-04T10:13:02;21.40;54.60
30381;DHT22;17169;50.966;11.038;2023-06-04T10:16:07;21.50;53.80
30381;DHT22;17169;50.966;11.038;2023-06-04T10:19:11;21.50;52.90
30381;DHT22;17169;50.966;11.038;2023-06-04T10:22:14;21.50;53.00
30381;DHT22;17169;50.966;11.038;2023-06-04T10:25:18;21.50;53.50
30381;DHT22;17169;50.966;11.038;2023-06-04T10:28:23;21.50;53.40
30381;DHT22;17169;50.966;11.038;2023-06-04T10:31:26;21.50;53.80
30381;DHT22;17169;50.966;11.038;2023-06-04T10:34:30;21.60;52.90
30381;DHT22;17169;50.966;11.038;2023-06-04T10:37:32;21.60;51.60
30381;DHT22;17169;50.966;11.038;2023-06-04T10:40:35;21.60;53.00
30381;DHT22;17169;50.966;11.038;2023-06-04T10:43:37;21.70;51.90
30381;DHT22;17169;50.966;11.038;2023-06-04T10:46:41;21.60;51.50
30381;DHT22;17169;50.966;11.038;2023-06-04T10:49:45;21.80;52.10
30381;DHT22;17169;50.966;11.038;2023-06-04T10:52:51;21.90;51.90
30381;DHT22;17169;50.966;11.038;2023-06-04T10:55:54;21.90;50.50
30381;DHT22;17169;50.966;11.038;2023-06-04T10:58:56;21.90;50.90
30381;DHT22;17169;50.966;11.038;2023-06-04T11:02:04;22.00;50.30
30381;DHT22;17169;50.966;11.038;2023-06-04T11:05:09;22.20;51.40
30381;DHT22;17169;50.966;11.038;2023-06-04T11:08:12;22.40;51.70
30381;DHT22;17169;50.966;11.038;2023-06-04T11:11:15;22.60;50.60
30381;DHT22;17169;50.966;11.038;2023-06-04T11:14:18;22.70;49.20
30381;DHT22;17169;50.966;11.038;2023-06-04T11:17:21;22.80;49.70
30381;DHT22;17169;50.966;11.038;2023-06-04T11:20:25;23.00;49.60
30381;DHT22;17169;50.966;11.038;2023-06-04T11:23:28;23.10;49.60
30381;DHT22;17169;50.966;11.038;2023-06-04T11:26:31;23.20;49.60
30381;DHT22;17169;50.966;11.038;2023-06-04T11:29:34;23.40;49.20
30381;DHT22;17169;50.966;11.038;2023-06-04T11:32:36;23.50;49.00
30381;DHT22;17169;50.966;11.038;2023-06-04T11:35:43;23.70;48.50
30381;DHT22;17169;50.966;11.038;2023-06-04T11:38:54;23.90;49.00
30381;DHT22;17169;50.966;11.038;2023-06-04T11:41:56;24.00;47.70
30381;DHT22;17169;50.966;11.038;2023-06-04T11:45:00;24.20;47.90
30381;DHT22;17169;50.966;11.038;2023-06-04T11:48:05;24.30;47.40
30381;DHT22;17169;50.966;11.038;2023-06-04T11:51:09;24.40;47.50
30381;DHT22;17169;50.966;11.038;2023-06-04T11:54:12;24.60;47.60
30381;DHT22;17169;50.966;11.038;2023-06-04T11:57:15;24.70;46.90
30381;DHT22;17169;50.966;11.038;2023-06-04T12:00:18;24.80;47.30
30381;DHT22;17169;50.966;11.038;2023-06-04T12:06:36;25.10;46.30
30381;DHT22;17169;50.966;11.038;2023-06-04T12:09:38;25.40;45.10
30381;DHT22;17169;50.966;11.038;2023-06-04T12:12:40;25.50;45.50
30381;DHT22;17169;50.966;11.038;2023-06-04T12:15:43;25.70;44.30
30381;DHT22;17169;50.966;11.038;2023-06-04T12:18:59;25.80;44.90
30381;DHT22;17169;50.966;11.038;2023-06-04T12:22:07;25.90;45.20
30381;DHT22;17169;50.966;11.038;2023-06-04T12:25:09;26.10;45.60
30381;DHT22;17169;50.966;11.038;2023-06-04T12:28:17;26.30;45.50
30381;DHT22;17169;50.966;11.038;2023-06-04T12:31:19;26.50;44.20
30381;DHT22;17169;50.966;11.038;2023-06-04T12:34:22;26.70;44.70
30381;DHT22;17169;50.966;11.038;2023-06-04T12:37:25;26.80;44.30
30381;DHT22;17169;50.966;11.038;2023-06-04T12:40:28;26.90;43.70
30381;DHT22;17169;50.966;11.038;2023-06-04T12:43:30;27.00;44.20
30381;DHT22;17169;50.966;11.038;2023-06-04T12:46:35;27.00;43.40
30381;DHT22;17169;50.966;11.038;2023-06-04T12:49:38;27.10;44.10
30381;DHT22;17169;50.966;11.038;2023-06-04T12:52:41;27.30;43.90
30381;DHT22;17169;50.966;11.038;2023-06-04T12:55:44;27.40;43.00
30381;DHT22;17169;50.966;11.038;2023-06-04T12:58:46;27.40;42.60
30381;DHT22;17169;50.966;11.038;2023-06-04T13:01:49;27.50;41.80
30381;DHT22;17169;50.966;11.038;2023-06-04T13:04:52;27.70;42.00
30381;DHT22;17169;50.966;11.038;2023-06-04T13:07:58;27.80;42.30
30381;DHT22;17169;50.966;11.038;2023-06-04T13:11:02;27.90;42.50
30381;DHT22;17169;50.966;11.038;2023-06-04T13:14:05;28.00;43.20
30381;DHT22;17169;50.966;11.038;2023-06-04T13:17:07;28.20;43.00
30381;DHT22;17169;50.966;11.038;2023-06-04T13:20:10;28.50;42.60
30381;DHT22;17169;50.966;11.038;2023-06-04T13:23:14;28.70;41.50
30381;DHT22;17169;50.966;11.038;2023-06-04T13:26:17;29.00;42.50
30381;DHT22;17169;50.966;11.038;2023-06-04T13:29:20;29.30;42.20
30381;DHT22;17169;50.966;11.038;2023-06-04T13:32:24;29.60;41.40
30381;DHT22;17169;50.966;11.038;2023-06-04T13:35:26;29.80;41.70
30381;DHT22;17169;50.966;11.038;2023-06-04T13:38:30;30.20;41.30
30381;DHT22;17169;50.966;11.038;2023-06-04T13:41:32;30.40;39.40
30381;DHT22;17169;50.966;11.038;2023-06-04T13:44:35;30.70;39.00
30381;DHT22;17169;50.966;11.038;2023-06-04T13:47:37;31.00;39.20
30381;DHT22;17169;50.966;11.038;2023-06-04T13:50:40;31.60;38.70
30381;DHT22;17169;50.966;11.038;2023-06-04T13:53:44;33.10;38.50
30381;DHT22;17169;50.966;11.038;2023-06-04T13:56:47;34.90;37.80
30381;DHT22;17169;50.966;11.038;2023-06-04T13:59:50;36.60;36.90
30381;DHT22;17169;50.966;11.038;2023-06-04T14:02:52;38.00;34.90
30381;DHT22;17169;50.966;11.038;2023-06-04T14:05:56;39.00;34.90
30381;DHT22;17169;50.966;11.038;2023-06-04T14:08:59;40.10;33.20
30381;DHT22;17169;50.966;11.038;2023-06-04T14:12:02;41.10;32.90
30381;DHT22;17169;50.966;11.038;2023-06-04T14:15:05;42.10;32.00
30381;DHT22;17169;50.966;11.038;2023-06-04T14:18:08;42.70;32.30
30381;DHT22;17169;50.966;11.038;2023-06-04T14:21:10;43.60;31.60
30381;DHT22;17169;50.966;11.038;2023-06-04T14:24:14;44.00;31.10
30381;DHT22;17169;50.966;11.038;2023-06-04T14:27:16;44.60;30.20
30381;DHT22;17169;50.966;11.038;2023-06-04T14:30:18;45.00;30.10
30381;DHT22;17169;50.966;11.038;2023-06-04T14:33:21;45.30;29.70
30381;DHT22;17169;50.966;11.038;2023-06-04T14:36:23;45.70;29.80
30381;DHT22;17169;50.966;11.038;2023-06-04T14:39:27;46.20;29.90
30381;DHT22;17169;50.966;11.038;2023-06-04T14:42:29;47.00;29.70
30381;DHT22;17169;50.966;11.038;2023-06-04T14:45:32;47.40;28.80
30381;DHT22;17169;50.966;11.038;2023-06-04T14:48:34;47.70;28.60
30381;DHT22;17169;50.966;11.038;2023-06-04T14:51:36;48.00;28.50
30381;DHT22;17169;50.966;11.038;2023-06-04T14:54:40;48.50;28.50
30381;DHT22;17169;50.966;11.038;2023-06-04T14:57:42;48.80;28.10
30381;DHT22;17169;50.966;11.038;2023-06-04T15:00:45;48.80;28.20
30381;DHT22;17169;50.966;11.038;2023-06-04T15:03:47;49.00;28.00
30381;DHT22;17169;50.966;11.038;2023-06-04T15:06:49;49.50;28.10
30381;DHT22;17169;50.966;11.038;2023-06-04T15:09:53;49.80;27.80
30381;DHT22;17169;50.966;11.038;2023-06-04T15:12:56;50.10;27.50
30381;DHT22;17169;50.966;11.038;2023-06-04T15:15:58;50.30;27.50
30381;DHT22;17169;50.966;11.038;2023-06-04T15:19:00;50.20;27.40
30381;DHT22;17169;50.966;11.038;2023-06-04T15:22:03;50.40;27.40
30381;DHT22;17169;50.966;11.038;2023-06-04T15:25:07;50.40;27.30
30381;DHT22;17169;50.966;11.038;2023-06-04T15:28:10;50.30;27.40
30381;DHT22;17169;50.966;11.038;2023-06-04T15:31:12;50.40;27.70
30381;DHT22;17169;50.966;11.038;2023-06-04T15:34:15;50.70;27.30
30381;DHT22;17169;50.966;11.038;2023-06-04T15:37:17;50.90;27.70
30381;DHT22;17169;50.966;11.038;2023-06-04T15:40:21;50.90;27.00
30381;DHT22;17169;50.966;11.038;2023-06-04T15:43:24;51.00;27.10
30381;DHT22;17169;50.966;11.038;2023-06-04T15:46:26;51.20;27.10
30381;DHT22;17169;50.966;11.038;2023-06-04T15:49:29;51.80;27.10
30381;DHT22;17169;50.966;11.038;2023-06-04T15:52:31;51.90;26.60
30381;DHT22;17169;50.966;11.038;2023-06-04T15:55:35;51.60;26.70
30381;DHT22;17169;50.966;11.038;2023-06-04T15:58:37;51.70;26.80
30381;DHT22;17169;50.966;11.038;2023-06-04T16:01:40;51.70;26.90
30381;DHT22;17169;50.966;11.038;2023-06-04T16:04:43;52.20;26.80
30381;DHT22;17169;50.966;11.038;2023-06-04T16:07:46;52.20;26.80
30381;DHT22;17169;50.966;11.038;2023-06-04T16:10:50;52.20;26.60
30381;DHT22;17169;50.966;11.038;2023-06-04T16:13:52;52.10;26.60
30381;DHT22;17169;50.966;11.038;2023-06-04T16:16:54;52.10;26.50
30381;DHT22;17169;50.966;11.038;2023-06-04T16:19:57;52.10;26.50
30381;DHT22;17169;50.966;11.038;2023-06-04T16:22:59;51.90;26.40
30381;DHT22;17169;50.966;11.038;2023-06-04T16:26:03;52.00;26.50
30381;DHT22;17169;50.966;11.038;2023-06-04T16:29:05;51.90;26.40
30381;DHT22;17169;50.966;11.038;2023-06-04T16:32:08;51.80;26.40
30381;DHT22;17169;50.966;11.038;2023-06-04T16:35:10;51.70;26.40
30381;DHT22;17169;50.966;11.038;2023-06-04T16:38:13;51.40;26.20
30381;DHT22;17169;50.966;11.038;2023-06-04T16:41:18;51.40;26.30
30381;DHT22;17169;50.966;11.038;2023-06-04T16:44:21;51.40;26.10
30381;DHT22;17169;50.966;11.038;2023-06-04T16:47:23;51.30;26.20
30381;DHT22;17169;50.966;11.038;2023-06-04T16:50:26;50.80;26.30
30381;DHT22;17169;50.966;11.038;2023-06-04T16:53:28;50.80;26.00
30381;DHT22;17169;50.966;11.038;2023-06-04T16:56:32;50.30;26.20
30381;DHT22;17169;50.966;11.038;2023-06-04T16:59:34;49.80;26.30
30381;DHT22;17169;50.966;11.038;2023-06-04T17:02:37;49.60;26.20
30381;DHT22;17169;50.966;11.038;2023-06-04T17:05:39;48.90;25.90
30381;DHT22;17169;50.966;11.038;2023-06-04T17:08:42;46.50;26.00
30381;DHT22;17169;50.966;11.038;2023-06-04T17:11:45;45.00;26.40
30381;DHT22;17169;50.966;11.038;2023-06-04T17:14:48;43.10;26.60
30381;DHT22;17169;50.966;11.038;2023-06-04T17:17:50;40.80;26.80
30381;DHT22;17169;50.966;11.038;2023-06-04T17:20:52;38.50;27.50
30381;DHT22;17169;50.966;11.038;2023-06-04T17:23:55;36.50;27.80
30381;DHT22;17169;50.966;11.038;2023-06-04T17:26:59;34.70;28.60
30381;DHT22;17169;50.966;11.038;2023-06-04T17:30:01;33.20;29.30
30381;DHT22;17169;50.966;11.038;2023-06-04T17:33:04;32.00;29.70
30381;DHT22;17169;50.966;11.038;2023-06-04T17:36:06;31.00;30.50
30381;DHT22;17169;50.966;11.038;2023-06-04T17:39:09;30.00;31.40
30381;DHT22;17169;50.966;11.038;2023-06-04T17:42:12;29.20;32.10
30381;DHT22;17169;50.966;11.038;2023-06-04T17:45:15;28.60;32.80
30381;DHT22;17169;50.966;11.038;2023-06-04T17:48:17;27.90;33.60
30381;DHT22;17169;50.966;11.038;2023-06-04T17:51:20;27.30;34.30
30381;DHT22;17169;50.966;11.038;2023-06-04T17:54:22;26.80;34.80
30381;DHT22;17169;50.966;11.038;2023-06-04T17:57:28;26.40;35.20
30381;DHT22;17169;50.966;11.038;2023-06-04T18:00:31;26.00;36.20
30381;DHT22;17169;50.966;11.038;2023-06-04T18:03:33;25.60;36.10
30381;DHT22;17169;50.966;11.038;2023-06-04T18:06:35;25.30;36.30
30381;DHT22;17169;50.966;11.038;2023-06-04T18:09:38;24.90;36.90
30381;DHT22;17169;50.966;11.038;2023-06-04T18:12:43;24.60;37.40
30381;DHT22;17169;50.966;11.038;2023-06-04T18:15:46;24.40;38.10
30381;DHT22;17169;50.966;11.038;2023-06-04T18:18:49;24.10;38.90
30381;DHT22;17169;50.966;11.038;2023-06-04T18:21:51;23.90;39.20
30381;DHT22;17169;50.966;11.038;2023-06-04T18:24:54;23.70;39.50
30381;DHT22;17169;50.966;11.038;2023-06-04T18:27:57;23.50;39.90
30381;DHT22;17169;50.966;11.038;2023-06-04T18:31:00;23.30;40.40
30381;DHT22;17169;50.966;11.038;2023-06-04T18:34:02;23.10;40.80
30381;DHT22;17169;50.966;11.038;2023-06-04T18:37:05;22.90;40.90
30381;DHT22;17169;50.966;11.038;2023-06-04T18:40:08;22.70;41.80
30381;DHT22;17169;50.966;11.038;2023-06-04T18:43:13;22.60;42.10
30381;DHT22;17169;50.966;11.038;2023-06-04T18:46:15;22.40;42.40
30381;DHT22;17169;50.966;11.038;2023-06-04T18:49:18;22.30;42.70
30381;DHT22;17169;50.966;11.038;2023-06-04T18:52:22;22.20;42.80
30381;DHT22;17169;50.966;11.038;2023-06-04T18:55:24;22.10;43.20
30381;DHT22;17169;50.966;11.038;2023-06-04T18:58:28;21.90;43.50
30381;DHT22;17169;50.966;11.038;2023-06-04T19:01:31;21.80;43.70
30381;DHT22;17169;50.966;11.038;2023-06-04T19:04:33;21.70;44.20